createdAt,value
2018-04-08T00:00:14.132Z,7.02
2018-04-08T00:02:42.444Z,6.56
2018-04-08T00:05:10.786Z,8.88
2018-04-08T00:07:39.095Z,7.30
2018-04-08T00:10:07.434Z,6.82
2018-04-08T00:12:35.752Z,6.46
2018-04-08T00:15:04.084Z,6.76
2018-04-08T00:17:32.410Z,8.46
2018-04-08T00:20:00.750Z,9.28
2018-04-08T00:22:29.074Z,12.12
2018-04-08T00:24:57.430Z,10.34
2018-04-08T00:27:25.740Z,9.48
2018-04-08T00:29:54.072Z,7.76
2018-04-08T00:32:22.391Z,8.10
2018-04-08T00:34:50.718Z,6.78
2018-04-08T00:37:19.043Z,8.08
2018-04-08T00:39:47.378Z,8.10
2018-04-08T00:42:15.691Z,7.56
2018-04-08T00:44:44.027Z,6.96
2018-04-08T00:47:12.342Z,6.22
2018-04-08T00:49:40.692Z,6.60
2018-04-08T00:52:09.012Z,7.16
2018-04-08T00:54:37.328Z,6.56
2018-04-08T00:57:05.664Z,6.10
2018-04-08T00:59:33.980Z,5.32
2018-04-08T01:02:02.303Z,4.70
2018-04-08T01:04:30.626Z,5.82
2018-04-08T01:06:58.968Z,4.78
2018-04-08T01:09:27.306Z,4.92
2018-04-08T01:11:55.632Z,5.18
2018-04-08T01:14:23.943Z,5.08
2018-04-08T01:16:52.290Z,4.90
2018-04-08T01:19:20.609Z,4.30
2018-04-08T01:21:48.946Z,4.26
2018-04-08T01:24:17.261Z,5.64
2018-04-08T01:26:45.591Z,4.92
2018-04-08T01:29:13.898Z,5.72
2018-04-08T01:31:42.238Z,4.42
2018-04-08T01:34:10.560Z,5.20
2018-04-08T01:36:38.897Z,5.08
2018-04-08T01:39:07.212Z,5.78
2018-04-08T01:41:35.550Z,7.60
2018-04-08T01:44:04.178Z,8.00
2018-04-08T01:46:32.515Z,7.80
2018-04-08T01:49:00.827Z,6.64
2018-04-08T01:51:29.165Z,6.90
2018-04-08T01:53:57.481Z,5.90
2018-04-08T01:56:25.824Z,6.58
2018-04-08T01:58:54.136Z,6.36
2018-04-08T02:01:22.506Z,5.84
2018-04-08T02:03:50.818Z,5.16
2018-04-08T02:06:19.162Z,5.84
2018-04-08T02:08:47.470Z,4.92
2018-04-08T02:11:15.808Z,5.16
2018-04-08T02:13:44.117Z,4.74
2018-04-08T02:16:11.691Z,4.58
2018-04-08T02:18:40.015Z,4.50
2018-04-08T02:21:08.347Z,4.60
2018-04-08T02:23:36.651Z,5.36
2018-04-08T02:26:05.001Z,4.70
2018-04-08T02:28:33.315Z,5.70
2018-04-08T02:31:01.673Z,4.24
2018-04-08T02:33:29.983Z,4.90
2018-04-08T02:35:58.302Z,4.60
2018-04-08T02:38:26.644Z,5.40
2018-04-08T02:40:54.962Z,4.62
2018-04-08T02:43:23.303Z,4.26
2018-04-08T02:45:51.631Z,4.68
2018-04-08T02:48:19.968Z,5.72
2018-04-08T02:50:48.283Z,6.98
2018-04-08T02:53:16.635Z,7.48
2018-04-08T02:55:44.962Z,5.38
2018-04-08T02:58:13.942Z,5.42
2018-04-08T03:00:42.263Z,4.96
2018-04-08T03:03:10.625Z,5.06
2018-04-08T03:05:38.937Z,5.32
2018-04-08T03:08:07.277Z,5.32
2018-04-08T03:10:35.596Z,6.30
2018-04-08T03:13:03.932Z,4.86
2018-04-08T03:15:32.251Z,4.78
2018-04-08T03:18:00.586Z,5.30
2018-04-08T03:20:28.887Z,4.60
2018-04-08T03:22:57.221Z,5.64
2018-04-08T03:25:25.538Z,4.88
2018-04-08T03:27:53.872Z,4.94
2018-04-08T03:30:22.182Z,4.66
2018-04-08T03:32:50.521Z,4.88
2018-04-08T03:35:18.834Z,5.22
2018-04-08T03:37:47.176Z,5.08
2018-04-08T03:40:15.497Z,4.88
2018-04-08T03:42:43.844Z,4.30
2018-04-08T03:45:12.153Z,4.92
2018-04-08T03:47:40.488Z,4.26
2018-04-08T03:50:08.850Z,4.52
2018-04-08T03:52:37.176Z,4.82
2018-04-08T03:55:05.499Z,5.32
2018-04-08T03:57:33.831Z,4.78
2018-04-08T04:00:02.152Z,4.70
2018-04-08T04:02:30.495Z,5.60
2018-04-08T04:04:58.812Z,4.30
2018-04-08T04:07:27.147Z,4.32
2018-04-08T04:09:55.466Z,4.58
2018-04-08T04:12:23.804Z,4.58
2018-04-08T04:14:52.115Z,4.72
2018-04-08T04:17:20.433Z,5.00
2018-04-08T04:20:00.736Z,4.26
2018-04-08T04:22:40.892Z,4.92
2018-04-08T04:25:25.725Z,4.12
2018-04-08T04:27:54.082Z,5.32
2018-04-08T04:30:22.411Z,5.16
2018-04-08T04:32:50.750Z,4.96
2018-04-08T04:35:19.109Z,4.46
2018-04-08T04:37:47.461Z,4.90
2018-04-08T04:40:15.778Z,3.94
2018-04-08T04:42:44.091Z,4.46
2018-04-08T04:45:12.418Z,4.44
2018-04-08T04:47:40.725Z,5.00
2018-04-08T04:50:09.062Z,4.14
2018-04-08T04:52:37.376Z,4.54
2018-04-08T04:55:05.704Z,5.14
2018-04-08T04:57:34.029Z,3.94
2018-04-08T05:00:02.360Z,3.80
2018-04-08T05:02:30.672Z,4.90
2018-04-08T05:04:59.012Z,4.42
2018-04-08T05:07:27.328Z,5.28
2018-04-08T05:09:55.662Z,4.64
2018-04-08T05:12:23.974Z,5.02
2018-04-08T05:14:52.311Z,4.24
2018-04-08T05:17:20.619Z,4.12
2018-04-08T05:19:48.955Z,4.56
2018-04-08T05:22:17.268Z,4.42
2018-04-08T05:24:45.606Z,5.26
2018-04-08T05:27:13.914Z,6.14
2018-04-08T05:29:42.264Z,6.70
2018-04-08T05:32:10.577Z,6.14
2018-04-08T05:34:38.907Z,5.58
2018-04-08T05:37:07.231Z,6.08
2018-04-08T05:39:35.568Z,5.52
2018-04-08T05:42:03.873Z,8.26
2018-04-08T05:44:32.211Z,6.86
2018-04-08T05:47:00.521Z,6.70
2018-04-08T05:49:28.858Z,4.60
2018-04-08T05:51:57.171Z,5.14
2018-04-08T05:54:25.510Z,4.88
2018-04-08T05:56:53.826Z,5.40
2018-04-08T05:59:22.174Z,4.84
2018-04-08T06:01:50.498Z,5.22
2018-04-08T06:04:18.862Z,4.82
2018-04-08T06:06:47.181Z,6.02
2018-04-08T06:09:15.510Z,5.18
2018-04-08T06:11:43.835Z,4.94
2018-04-08T06:14:12.155Z,4.32
2018-04-08T06:16:40.502Z,4.62
2018-04-08T06:19:08.830Z,4.48
2018-04-08T06:21:37.181Z,4.42
2018-04-08T06:24:05.502Z,5.14
2018-04-08T06:26:33.840Z,4.84
2018-04-08T06:29:02.159Z,5.24
2018-04-08T06:31:30.498Z,4.94
2018-04-08T06:33:58.831Z,4.78
2018-04-08T06:36:27.165Z,5.04
2018-04-08T06:38:55.479Z,4.44
2018-04-08T06:41:23.820Z,5.02
2018-04-08T06:43:52.145Z,4.28
2018-04-08T06:46:20.488Z,4.88
2018-04-08T06:48:48.808Z,5.24
2018-04-08T06:51:17.147Z,6.04
2018-04-08T06:53:45.512Z,5.86
2018-04-08T06:56:13.851Z,4.32
2018-04-08T06:58:42.159Z,4.52
2018-04-08T07:01:10.498Z,4.66
2018-04-08T07:03:38.818Z,5.52
2018-04-08T07:06:07.183Z,4.26
2018-04-08T07:08:35.495Z,4.08
2018-04-08T07:11:03.842Z,4.20
2018-04-08T07:13:32.164Z,18.80
2018-04-08T07:16:00.498Z,5.10
2018-04-08T07:18:28.842Z,5.82
2018-04-08T07:20:57.175Z,4.50
2018-04-08T07:23:25.497Z,4.96
2018-04-08T07:25:53.831Z,4.70
2018-04-08T07:28:22.153Z,4.16
2018-04-08T07:30:50.482Z,4.34
2018-04-08T07:33:18.798Z,5.04
2018-04-08T07:35:47.191Z,4.12
2018-04-08T07:38:15.511Z,5.10
2018-04-08T07:40:43.860Z,4.60
2018-04-08T07:43:12.183Z,4.90
2018-04-08T07:45:40.528Z,4.88
2018-04-08T07:48:08.846Z,9.84
2018-04-08T07:50:37.194Z,14.32
2018-04-08T07:53:05.542Z,13.00
2018-04-08T07:55:33.878Z,5.62
2018-04-08T07:58:02.203Z,5.38
2018-04-08T08:00:30.511Z,4.74
2018-04-08T08:02:58.843Z,4.72
2018-04-08T08:05:27.200Z,4.40
2018-04-08T08:07:55.531Z,4.40
2018-04-08T08:10:23.838Z,5.30
2018-04-08T08:12:52.172Z,4.94
2018-04-08T08:15:20.489Z,5.76
2018-04-08T08:17:48.843Z,4.94
2018-04-08T08:20:17.157Z,4.44
2018-04-08T08:22:45.499Z,4.34
2018-04-08T08:25:13.802Z,3.98
2018-04-08T08:27:42.132Z,4.60
2018-04-08T08:30:10.443Z,4.52
2018-04-08T08:32:38.775Z,4.66
2018-04-08T08:35:07.097Z,4.24
2018-04-08T08:37:35.432Z,4.22
2018-04-08T08:40:03.744Z,4.26
2018-04-08T08:42:32.074Z,4.20
2018-04-08T08:45:00.382Z,4.90
2018-04-08T08:47:28.716Z,5.34
2018-04-08T08:49:56.264Z,5.48
2018-04-08T08:52:24.604Z,6.04
2018-04-08T08:54:52.933Z,5.90
2018-04-08T08:57:20.526Z,6.66
2018-04-08T08:59:48.875Z,7.18
2018-04-08T09:02:17.220Z,8.20
2018-04-08T09:04:45.532Z,8.04
2018-04-08T09:07:13.870Z,8.22
2018-04-08T09:09:42.198Z,8.60
2018-04-08T09:12:10.572Z,9.14
2018-04-08T09:14:39.137Z,10.70
2018-04-08T09:17:07.474Z,11.98
2018-04-08T09:19:51.687Z,9.64
2018-04-08T09:22:38.815Z,8.86
2018-04-08T09:25:07.135Z,8.56
2018-04-08T09:27:35.481Z,10.30
2018-04-08T09:30:03.806Z,7.78
2018-04-08T09:32:32.150Z,8.00
2018-04-08T09:35:00.472Z,8.40
2018-04-08T09:37:28.816Z,7.28
2018-04-08T09:39:57.139Z,8.10
2018-04-08T09:42:25.471Z,6.86
2018-04-08T09:44:53.787Z,7.54
2018-04-08T09:47:22.142Z,7.42
2018-04-08T09:49:50.539Z,7.34
2018-04-08T09:52:18.897Z,6.46
2018-04-08T09:54:47.220Z,5.92
2018-04-08T09:57:15.567Z,6.12
2018-04-08T09:59:43.893Z,6.42
2018-04-08T10:02:31.119Z,6.48
2018-04-08T10:04:59.446Z,5.74
2018-04-08T10:07:27.783Z,5.64
2018-04-08T10:09:56.103Z,5.92
2018-04-08T10:12:24.416Z,6.16
2018-04-08T10:14:52.755Z,5.38
2018-04-08T10:17:21.069Z,6.40
2018-04-08T10:19:49.412Z,5.78
2018-04-08T10:22:17.727Z,5.12
2018-04-08T10:24:46.062Z,5.52
2018-04-08T10:27:14.369Z,4.86
2018-04-08T10:29:42.724Z,5.14
2018-04-08T10:32:11.063Z,5.06
2018-04-08T10:34:39.397Z,4.66
2018-04-08T10:37:07.707Z,5.02
2018-04-08T10:39:36.040Z,4.50
2018-04-08T10:42:04.352Z,4.66
2018-04-08T10:44:32.704Z,4.82
2018-04-08T10:47:01.017Z,5.02
2018-04-08T10:49:29.360Z,4.82
2018-04-08T10:51:57.671Z,4.94
2018-04-08T10:54:26.005Z,4.70
2018-04-08T10:56:54.323Z,4.44
2018-04-08T10:59:22.664Z,4.46
2018-04-08T11:01:50.985Z,4.32
2018-04-08T11:04:19.326Z,5.12
2018-04-08T11:06:47.642Z,4.92
2018-04-08T11:09:15.981Z,4.60
2018-04-08T11:11:44.308Z,4.26
2018-04-08T11:14:12.641Z,4.24
2018-04-08T11:16:40.954Z,4.00
2018-04-08T11:19:09.287Z,4.20
2018-04-08T11:21:37.611Z,3.82
2018-04-08T11:24:05.939Z,4.50
2018-04-08T11:26:34.251Z,4.92
2018-04-08T11:29:02.589Z,4.16
2018-04-08T11:31:30.910Z,4.58
2018-04-08T11:33:59.231Z,4.58
2018-04-08T11:36:27.566Z,4.42
2018-04-08T11:38:55.883Z,4.22
2018-04-08T11:41:24.218Z,4.24
2018-04-08T11:43:52.552Z,4.30
2018-04-08T11:46:20.891Z,4.26
2018-04-08T11:48:49.207Z,4.52
2018-04-08T11:51:17.545Z,4.56
2018-04-08T11:53:45.860Z,4.30
2018-04-08T11:56:14.199Z,4.38
2018-04-08T11:58:42.508Z,4.36
2018-04-08T12:01:12.952Z,4.42
2018-04-08T12:03:41.258Z,4.06
2018-04-08T12:06:10.465Z,4.18
2018-04-08T12:08:39.630Z,4.50
2018-04-08T12:11:07.974Z,3.85
2018-04-08T12:16:04.171Z,3.80
2018-04-08T12:21:00.387Z,3.92
2018-04-08T12:23:28.703Z,4.10
2018-04-08T12:25:57.099Z,4.84
2018-04-08T12:28:25.411Z,3.86
2018-04-08T12:30:53.758Z,4.20
2018-04-08T12:33:22.086Z,3.80
2018-04-08T12:35:50.423Z,4.04
2018-04-08T12:38:18.758Z,4.08
2018-04-08T12:40:47.101Z,4.62
2018-04-08T12:43:15.413Z,3.66
2018-04-08T12:45:43.738Z,3.54
2018-04-08T12:48:12.060Z,3.94
2018-04-08T12:50:40.411Z,3.58
2018-04-08T12:53:08.718Z,3.40
2018-04-08T12:55:37.048Z,4.06
2018-04-08T12:58:05.365Z,4.74
2018-04-08T13:00:33.742Z,3.74
2018-04-08T13:03:02.049Z,6.78
2018-04-08T13:05:30.379Z,5.18
2018-04-08T13:07:58.691Z,4.10
2018-04-08T13:10:27.164Z,3.88
2018-04-08T13:12:55.688Z,3.94
2018-04-08T13:15:24.056Z,4.04
2018-04-08T13:17:52.401Z,3.64
2018-04-08T13:20:20.721Z,3.72
2018-04-08T13:22:49.051Z,4.60
2018-04-08T13:25:17.368Z,4.12
2018-04-08T13:27:45.695Z,3.76
2018-04-08T13:30:14.013Z,4.26
2018-04-08T13:32:42.348Z,4.08
2018-04-08T13:35:10.657Z,3.80
2018-04-08T13:37:38.990Z,3.88
2018-04-08T13:40:07.299Z,4.26
2018-04-08T13:42:35.628Z,4.36
2018-04-08T13:45:03.936Z,3.78
2018-04-08T13:47:32.277Z,4.20
2018-04-08T13:50:00.592Z,4.32
2018-04-08T13:52:28.923Z,4.18
2018-04-08T13:54:57.240Z,3.80
2018-04-08T13:57:25.573Z,4.20
2018-04-08T13:59:53.879Z,4.12
2018-04-08T14:02:22.208Z,4.80
2018-04-08T14:04:50.526Z,4.88
2018-04-08T14:07:18.860Z,4.18
2018-04-08T14:09:47.177Z,4.08
2018-04-08T14:12:15.515Z,5.02
2018-04-08T14:14:43.843Z,4.14
2018-04-08T14:17:12.172Z,4.20
2018-04-08T14:19:40.480Z,3.78
2018-04-08T14:22:08.810Z,4.24
2018-04-08T14:24:37.171Z,4.22
2018-04-08T14:27:05.478Z,4.16
2018-04-08T14:29:33.782Z,4.70
2018-04-08T14:32:02.120Z,4.56
2018-04-08T14:34:30.439Z,4.28
2018-04-08T14:36:58.772Z,3.40
2018-04-08T14:39:27.079Z,3.94
2018-04-08T14:41:55.411Z,3.70
2018-04-08T14:44:23.720Z,3.76
2018-04-08T14:46:52.091Z,4.08
2018-04-08T14:49:20.402Z,3.72
2018-04-08T14:51:48.728Z,4.04
2018-04-08T14:54:17.038Z,3.74
2018-04-08T14:56:45.389Z,4.32
2018-04-08T14:59:13.718Z,4.40
2018-04-08T15:01:46.663Z,4.62
2018-04-08T15:04:10.389Z,4.84
2018-04-08T15:06:38.694Z,4.40
2018-04-08T15:09:07.043Z,3.98
2018-04-08T15:11:35.361Z,4.38
2018-04-08T15:14:03.704Z,4.58
2018-04-08T15:16:32.020Z,4.90
2018-04-08T15:19:00.354Z,4.28
2018-04-08T15:21:28.664Z,4.88
2018-04-08T15:23:56.999Z,4.62
2018-04-08T15:26:25.310Z,4.00
2018-04-08T15:28:53.636Z,3.84
2018-04-08T15:31:21.954Z,4.08
2018-04-08T15:33:50.288Z,4.04
2018-04-08T15:36:18.828Z,4.48
2018-04-08T15:38:47.172Z,4.02
2018-04-08T15:41:15.497Z,3.86
2018-04-08T15:46:11.683Z,3.90
2018-04-08T15:48:40.021Z,4.55
2018-04-08T15:51:08.334Z,4.26
2018-04-08T15:53:36.674Z,4.55
2018-04-08T15:56:04.983Z,5.00
2018-04-08T15:58:33.316Z,5.05
2018-04-08T16:01:01.640Z,5.16
2018-04-08T16:03:29.989Z,4.45
2018-04-08T16:05:58.296Z,4.95
2018-04-08T16:10:54.471Z,4.32
2018-04-08T16:13:22.794Z,4.64
2018-04-08T16:15:51.153Z,4.32
2018-04-08T16:18:19.486Z,4.86
2018-04-08T16:20:47.811Z,5.82
2018-04-08T16:23:16.142Z,4.74
2018-04-08T16:25:44.455Z,5.54
2018-04-08T16:28:12.789Z,4.84
2018-04-08T16:30:41.103Z,4.72
2018-04-08T16:33:09.431Z,5.66
2018-04-08T16:35:37.744Z,5.50
2018-04-08T16:38:06.054Z,4.82
2018-04-08T16:40:34.392Z,5.06
2018-04-08T16:43:02.702Z,5.70
2018-04-08T16:45:31.039Z,5.68
2018-04-08T16:47:59.348Z,5.04
2018-04-08T16:50:27.682Z,5.32
2018-04-08T16:52:56.003Z,6.26
2018-04-08T16:55:24.338Z,5.30
2018-04-08T16:57:52.670Z,5.24
2018-04-08T17:00:21.012Z,5.08
2018-04-08T17:02:49.327Z,4.98
2018-04-08T17:05:17.656Z,4.80
2018-04-08T17:07:45.966Z,5.20
2018-04-08T17:10:14.303Z,5.12
2018-04-08T17:12:42.612Z,4.54
2018-04-08T17:15:10.952Z,4.96
2018-04-08T17:17:39.254Z,4.86
2018-04-08T17:20:07.593Z,4.56
2018-04-08T17:22:35.911Z,4.40
2018-04-08T17:25:04.234Z,4.80
2018-04-08T17:27:32.567Z,4.50
2018-04-08T17:30:00.904Z,4.38
2018-04-08T17:32:29.218Z,4.42
2018-04-08T17:34:57.555Z,4.47
2018-04-08T17:37:25.868Z,4.30
2018-04-08T17:39:54.201Z,3.98
2018-04-08T17:42:22.543Z,6.68
2018-04-08T17:44:50.879Z,6.48
2018-04-08T17:47:19.202Z,6.16
2018-04-08T17:49:47.531Z,6.24
2018-04-08T17:52:15.855Z,10.42
2018-04-08T17:54:44.203Z,19.26
2018-04-08T17:57:12.513Z,15.66
2018-04-08T17:59:40.851Z,9.08
2018-04-08T18:02:09.164Z,8.68
2018-04-08T18:04:37.498Z,5.72
2018-04-08T18:07:05.816Z,4.70
2018-04-08T18:09:34.171Z,4.02
2018-04-08T18:12:02.483Z,5.00
2018-04-08T18:14:30.836Z,4.12
2018-04-08T18:16:59.175Z,4.06
2018-04-08T18:19:27.579Z,4.08
2018-04-08T18:21:55.914Z,3.80
2018-04-08T18:24:24.269Z,3.90
2018-04-08T18:26:52.627Z,4.38
2018-04-08T18:29:20.949Z,5.32
2018-04-08T18:31:49.306Z,6.12
2018-04-08T18:34:17.665Z,5.90
2018-04-08T18:36:46.003Z,5.70
2018-04-08T18:39:14.311Z,5.68
2018-04-08T18:41:42.707Z,5.34
2018-04-08T18:44:11.028Z,5.88
2018-04-08T18:46:39.359Z,5.50
2018-04-08T18:49:07.680Z,5.18
2018-04-08T18:51:36.014Z,7.84
2018-04-08T18:54:04.343Z,5.74
2018-04-08T18:56:32.676Z,5.14
2018-04-08T18:59:00.991Z,4.72
2018-04-08T19:01:29.344Z,5.22
2018-04-08T19:03:57.651Z,4.94
2018-04-08T19:06:25.991Z,4.94
2018-04-08T19:08:54.307Z,5.28
2018-04-08T19:11:22.695Z,4.62
2018-04-08T19:13:51.007Z,6.14
2018-04-08T19:16:19.368Z,6.50
2018-04-08T19:18:47.775Z,7.16
2018-04-08T19:21:16.210Z,6.88
2018-04-08T19:23:48.351Z,6.98
2018-04-08T19:26:16.720Z,6.78
2018-04-08T19:28:45.087Z,6.36
2018-04-08T19:31:13.423Z,5.12
2018-04-08T19:33:41.747Z,4.58
2018-04-08T19:36:10.088Z,4.78
2018-04-08T19:38:38.402Z,4.26
2018-04-08T19:41:06.734Z,4.42
2018-04-08T19:43:35.057Z,3.88
2018-04-08T19:46:03.390Z,4.72
2018-04-08T19:50:59.640Z,4.78
2018-04-08T19:53:27.959Z,5.20
2018-04-08T19:55:56.299Z,5.00
2018-04-08T19:58:24.607Z,4.60
2018-04-08T20:00:52.976Z,4.74
2018-04-08T20:03:21.349Z,4.84
2018-04-08T20:05:49.663Z,5.72
2018-04-08T20:08:18.001Z,5.66
2018-04-08T20:10:46.315Z,8.28
2018-04-08T20:13:13.895Z,8.04
2018-04-08T20:15:42.261Z,7.34
2018-04-08T20:18:10.650Z,6.14
2018-04-08T20:20:38.931Z,5.90
2018-04-08T20:23:07.303Z,5.98
2018-04-08T20:25:35.619Z,5.40
2018-04-08T20:28:03.946Z,4.26
2018-04-08T20:30:32.266Z,4.98
2018-04-08T20:33:00.609Z,5.20
2018-04-08T20:35:28.924Z,4.64
2018-04-08T20:37:57.266Z,4.24
2018-04-08T20:42:53.463Z,4.70
2018-04-08T20:45:21.775Z,4.88
2018-04-08T20:47:50.838Z,4.47
2018-04-08T20:50:19.160Z,4.68
2018-04-08T20:52:47.496Z,4.68
2018-04-08T20:55:15.807Z,4.88
2018-04-08T20:57:44.135Z,4.68
2018-04-08T21:00:12.443Z,5.12
2018-04-08T21:02:40.769Z,5.03
2018-04-08T21:05:09.089Z,4.40
2018-04-08T21:07:37.415Z,4.60
2018-04-08T21:10:05.723Z,5.67
2018-04-08T21:12:34.074Z,8.54
2018-04-08T21:15:02.413Z,12.30
2018-04-08T21:17:30.758Z,9.26
2018-04-08T21:19:59.081Z,14.08
2018-04-08T21:22:27.416Z,20.66
2018-04-08T21:24:55.746Z,16.96
2018-04-08T21:27:24.087Z,15.54
2018-04-08T21:29:52.412Z,10.70
2018-04-08T21:32:20.760Z,40.04
2018-04-08T21:34:49.091Z,13.90
2018-04-08T21:37:17.432Z,28.76
2018-04-08T21:39:45.753Z,9.38
2018-04-08T21:42:14.088Z,11.18
2018-04-08T21:44:42.408Z,10.00
2018-04-08T21:47:10.752Z,14.10
2018-04-08T21:49:39.087Z,25.06
2018-04-08T21:52:07.414Z,27.00
2018-04-08T21:54:35.761Z,12.34
2018-04-08T21:57:04.088Z,30.38
2018-04-08T21:59:32.436Z,20.34
2018-04-08T22:02:00.765Z,8.96
2018-04-08T22:04:29.103Z,13.76
2018-04-08T22:06:57.420Z,9.90
2018-04-08T22:09:25.758Z,36.98
2018-04-08T22:11:54.080Z,26.86
2018-04-08T22:14:22.422Z,18.76
2018-04-08T22:16:50.747Z,19.76
2018-04-08T22:19:19.092Z,7.46
2018-04-08T22:21:47.419Z,13.50
2018-04-08T22:24:15.752Z,11.34
2018-04-08T22:26:44.076Z,8.78
2018-04-08T22:29:12.411Z,4.90
2018-04-08T22:31:40.728Z,4.44
2018-04-08T22:34:08.308Z,4.38
2018-04-08T22:36:36.620Z,4.46
2018-04-08T22:39:05.711Z,4.36
2018-04-08T22:41:34.031Z,5.78
2018-04-08T22:44:02.371Z,4.50
2018-04-08T22:46:30.688Z,4.52
2018-04-08T22:48:59.023Z,4.06
2018-04-08T22:51:27.336Z,5.96
2018-04-08T22:53:55.676Z,5.14
2018-04-08T22:56:23.993Z,4.40
2018-04-08T22:58:52.334Z,4.38
2018-04-08T23:01:20.654Z,4.64
2018-04-08T23:03:49.015Z,4.66
2018-04-08T23:06:17.329Z,5.10
2018-04-08T23:08:45.681Z,4.40
2018-04-08T23:11:14.028Z,4.22
2018-04-08T23:13:42.362Z,4.80
2018-04-08T23:16:10.671Z,4.62
2018-04-08T23:18:39.011Z,4.66
2018-04-08T23:21:07.340Z,4.02
2018-04-08T23:23:35.681Z,4.50
2018-04-08T23:26:03.993Z,4.00
2018-04-08T23:28:32.340Z,4.28
2018-04-08T23:31:00.659Z,4.10
2018-04-08T23:33:28.968Z,3.80
2018-04-08T23:35:57.306Z,4.92
2018-04-08T23:38:25.623Z,4.48
2018-04-08T23:40:53.960Z,4.96
2018-04-08T23:43:22.274Z,16.92
2018-04-08T23:45:50.621Z,23.42
2018-04-08T23:48:18.970Z,16.04
2018-04-08T23:50:47.303Z,18.50
2018-04-08T23:53:15.636Z,24.56
2018-04-08T23:55:43.985Z,28.62
2018-04-08T23:58:12.296Z,46.16
